createdAt,value
2023-01-09T00:00:22.912Z,0.800
2023-01-09T00:01:33.303Z,0.700
2023-01-09T00:02:25.235Z,1.150
2023-01-09T00:03:29.213Z,0.650
2023-01-09T00:04:23.305Z,1.100
2023-01-09T00:05:29.645Z,0.900
2023-01-09T00:06:27.679Z,0.300
2023-01-09T00:07:24.997Z,0.500
2023-01-09T00:08:39.255Z,0.300
2023-01-09T00:09:20.329Z,1.300
2023-01-09T00:10:21.122Z,0.600
2023-01-09T00:11:22.327Z,0.500
2023-01-09T00:12:32.371Z,0.600
2023-01-09T00:13:28.831Z,0.800
2023-01-09T00:14:23.080Z,0.500
2023-01-09T00:15:34.289Z,0.900
2023-01-09T00:16:27.291Z,0.600
2023-01-09T00:17:26.145Z,0.600
2023-01-09T00:18:19.842Z,0.500
2023-01-09T00:19:20.428Z,1.050
2023-01-09T00:20:26.218Z,0.700
2023-01-09T00:21:22.830Z,1.000
2023-01-09T00:22:34.540Z,1.000
2023-01-09T00:23:28.401Z,0.800
2023-01-09T00:24:25.948Z,0.600
2023-01-09T00:25:20.240Z,1.150
2023-01-09T00:26:24.222Z,1.000
2023-01-09T00:27:22.833Z,0.650
2023-01-09T00:28:22.379Z,1.150
2023-01-09T00:29:32.091Z,1.700
2023-01-09T00:30:28.532Z,2.000
2023-01-09T00:31:24.091Z,1.900
2023-01-09T00:32:20.371Z,1.800
2023-01-09T00:33:29.879Z,1.700
2023-01-09T00:34:26.036Z,1.500
2023-01-09T00:35:22.172Z,1.500
2023-01-09T00:36:33.358Z,1.450
2023-01-09T00:37:27.975Z,2.200
2023-01-09T00:38:24.017Z,2.350
2023-01-09T00:39:21.172Z,2.400
2023-01-09T00:40:21.998Z,2.400
2023-01-09T00:41:26.723Z,1.600
2023-01-09T00:42:22.058Z,1.650
2023-01-09T00:43:31.863Z,1.600
2023-01-09T00:44:24.949Z,2.850
2023-01-09T00:45:24.021Z,1.700
2023-01-09T00:46:22.630Z,2.100
2023-01-09T00:47:27.857Z,0.800
2023-01-09T00:48:25.907Z,0.800
2023-01-09T00:49:22.654Z,0.900
2023-01-09T00:50:30.737Z,1.050
2023-01-09T00:51:27.898Z,0.850
2023-01-09T00:52:25.785Z,1.400
2023-01-09T00:53:20.085Z,1.600
2023-01-09T00:54:30.568Z,0.500
2023-01-09T00:55:26.043Z,0.700
2023-01-09T00:56:22.015Z,1.100
2023-01-09T00:57:32.225Z,1.800
2023-01-09T00:58:29.470Z,0.500
2023-01-09T00:59:24.140Z,1.050
2023-01-09T01:00:20.567Z,1.700
2023-01-09T01:01:27.573Z,1.200
2023-01-09T01:02:27.679Z,0.950
2023-01-09T01:03:23.989Z,0.900
2023-01-09T01:04:23.362Z,1.800
2023-01-09T01:05:28.977Z,1.700
2023-01-09T01:06:23.851Z,1.750
2023-01-09T01:07:20.056Z,3.300
2023-01-09T01:08:31.840Z,1.900
2023-01-09T01:09:26.660Z,4.600
2023-01-09T01:10:21.993Z,3.300
2023-01-09T01:11:27.101Z,5.200
2023-01-09T01:12:24.747Z,2.750
2023-01-09T01:13:24.419Z,4.100
2023-01-09T01:14:21.494Z,4.000
2023-01-09T01:15:30.190Z,6.400
2023-01-09T01:16:27.401Z,8.300
2023-01-09T01:17:21.814Z,5.600
2023-01-09T01:18:23.303Z,8.750
2023-01-09T01:19:24.126Z,11.450
2023-01-09T01:20:25.026Z,11.900
2023-01-09T01:21:19.869Z,9.050
2023-01-09T01:22:30.847Z,10.300
2023-01-09T01:23:21.624Z,9.000
2023-01-09T01:24:24.043Z,9.200
2023-01-09T01:25:26.212Z,6.100
2023-01-09T01:26:19.181Z,6.300
2023-01-09T01:27:22.059Z,5.250
2023-01-09T01:28:20.381Z,5.000
2023-01-09T01:29:25.768Z,5.800
2023-01-09T01:30:26.453Z,4.000
2023-01-09T01:31:23.632Z,5.200
2023-01-09T01:32:21.632Z,4.750
2023-01-09T01:33:23.899Z,4.100
2023-01-09T01:34:25.427Z,6.400
2023-01-09T01:35:20.298Z,5.500
2023-01-09T01:36:31.297Z,6.550
2023-01-09T01:37:26.068Z,7.800
2023-01-09T01:38:23.424Z,5.600
2023-01-09T01:39:24.658Z,5.500
2023-01-09T01:40:21.848Z,6.300
2023-01-09T01:41:20.978Z,5.900
2023-01-09T01:42:22.370Z,7.800
2023-01-09T01:43:21.696Z,6.700
2023-01-09T01:44:26.045Z,6.050
2023-01-09T01:45:22.346Z,7.100
2023-01-09T01:46:27.721Z,5.100
2023-01-09T01:47:28.315Z,3.900
2023-01-09T01:48:25.250Z,2.900
2023-01-09T01:49:21.729Z,1.750
2023-01-09T01:50:23.370Z,1.600
2023-01-09T01:51:25.952Z,1.400
2023-01-09T01:52:22.072Z,1.400
2023-01-09T01:53:33.133Z,1.200
2023-01-09T01:54:27.915Z,0.400
2023-01-09T01:55:24.049Z,1.050
2023-01-09T01:56:22.691Z,1.300
2023-01-09T01:57:26.469Z,0.800
2023-01-09T01:58:26.151Z,1.350
2023-01-09T01:59:22.089Z,1.100
2023-01-09T02:00:36.508Z,0.450
2023-01-09T02:05:36.850Z,0.900
2023-01-09T02:06:26.583Z,1.100
2023-01-09T02:12:08.550Z,2.800
2023-01-09T02:12:27.097Z,1.050
2023-01-09T02:13:22.698Z,1.600
2023-01-09T02:14:28.152Z,1.500
2023-01-09T02:15:29.879Z,1.150
2023-01-09T02:16:25.664Z,0.600
2023-01-09T02:17:21.776Z,1.550
2023-01-09T02:18:30.390Z,1.000
2023-01-09T02:19:22.290Z,2.000
2023-01-09T02:20:23.098Z,1.050
2023-01-09T02:21:33.716Z,2.050
2023-01-09T02:22:29.983Z,1.000
2023-01-09T02:23:24.212Z,1.100
2023-01-09T02:24:21.736Z,0.600
2023-01-09T02:25:23.720Z,1.950
2023-01-09T02:26:26.156Z,1.200
2023-01-09T02:27:25.573Z,0.800
2023-01-09T02:28:34.316Z,1.950
2023-01-09T02:29:28.089Z,1.000
2023-01-09T02:30:19.492Z,1.300
2023-01-09T02:31:20.320Z,0.900
2023-01-09T02:32:30.121Z,1.150
2023-01-09T02:33:31.324Z,0.900
2023-01-09T02:34:23.426Z,1.000
2023-01-09T02:35:23.223Z,1.600
2023-01-09T02:36:19.977Z,1.350
2023-01-09T02:37:24.190Z,1.300
2023-01-09T02:38:20.389Z,2.050
2023-01-09T02:39:30.137Z,1.000
2023-01-09T02:40:27.954Z,1.700
2023-01-09T02:41:22.200Z,1.500
2023-01-09T02:42:21.988Z,1.500
2023-01-09T02:43:29.847Z,1.050
2023-01-09T02:44:25.676Z,1.000
2023-01-09T02:45:20.271Z,0.750
2023-01-09T02:46:31.722Z,1.650
2023-01-09T02:47:25.923Z,1.600
2023-01-09T02:48:23.530Z,0.850
2023-01-09T02:49:24.599Z,1.750
2023-01-09T02:50:23.244Z,1.400
2023-01-09T02:51:24.040Z,1.050
2023-01-09T02:52:20.188Z,1.100
2023-01-09T02:53:23.293Z,2.500
2023-01-09T02:54:27.372Z,1.200
2023-01-09T02:55:23.711Z,1.800
2023-01-09T02:56:29.244Z,1.450
2023-01-09T02:57:21.677Z,1.800
2023-01-09T02:58:20.423Z,1.100
2023-01-09T02:59:20.433Z,1.300
2023-01-09T03:00:30.460Z,1.550
2023-01-09T03:01:28.011Z,1.900
2023-01-09T03:02:21.982Z,1.700
2023-01-09T03:03:32.794Z,2.000
2023-01-09T03:04:31.073Z,1.900
2023-01-09T03:05:23.939Z,0.750
2023-01-09T03:06:21.951Z,1.600
2023-01-09T03:07:30.255Z,1.200
2023-01-09T03:08:26.523Z,1.150
2023-01-09T03:09:23.501Z,1.900
2023-01-09T03:10:23.323Z,1.250
2023-01-09T03:11:31.150Z,1.400
2023-01-09T03:12:26.227Z,2.100
2023-01-09T03:13:21.020Z,0.700
2023-01-09T03:14:30.269Z,1.300
2023-01-09T03:15:26.318Z,1.350
2023-01-09T03:16:24.111Z,0.800
2023-01-09T03:17:19.629Z,0.700
2023-01-09T03:18:29.925Z,1.300
2023-01-09T03:19:24.537Z,0.900
2023-01-09T03:20:21.900Z,1.300
2023-01-09T03:21:20.919Z,1.800
2023-01-09T03:22:27.827Z,1.200
2023-01-09T03:23:22.375Z,1.750
2023-01-09T03:24:22.996Z,1.300
2023-01-09T03:25:30.832Z,2.200
2023-01-09T03:26:24.289Z,1.100
2023-01-09T03:27:21.433Z,1.400
2023-01-09T03:28:22.983Z,1.250
2023-01-09T03:29:27.851Z,1.400
2023-01-09T03:30:22.973Z,1.850
2023-01-09T03:31:25.927Z,1.600
2023-01-09T03:32:30.241Z,1.350
2023-01-09T03:33:24.281Z,1.750
2023-01-09T03:34:20.328Z,1.500
2023-01-09T03:35:22.306Z,0.750
2023-01-09T03:36:26.584Z,1.700
2023-01-09T03:37:22.281Z,1.200
2023-01-09T03:38:23.435Z,1.350
2023-01-09T03:39:30.343Z,1.250
2023-01-09T03:40:24.215Z,2.700
2023-01-09T03:41:21.681Z,1.500
2023-01-09T03:42:26.424Z,1.650
2023-01-09T03:43:26.182Z,1.600
2023-01-09T03:44:22.258Z,1.450
2023-01-09T03:45:32.468Z,2.000
2023-01-09T03:46:28.582Z,2.400
2023-01-09T03:47:24.489Z,1.850
2023-01-09T03:48:20.279Z,2.200
2023-01-09T03:49:26.796Z,2.100
2023-01-09T03:50:27.230Z,1.900
2023-01-09T03:51:22.950Z,1.800
2023-01-09T03:52:34.488Z,2.500
2023-01-09T03:53:23.020Z,1.900
2023-01-09T03:54:24.574Z,1.600
2023-01-09T03:55:21.896Z,1.600
2023-01-09T03:56:30.727Z,1.800
2023-01-09T03:57:31.155Z,1.600
2023-01-09T03:58:25.892Z,1.400
2023-01-09T03:59:32.334Z,1.800
2023-01-09T04:00:25.726Z,1.700
2023-01-09T04:01:25.599Z,2.350
2023-01-09T04:02:20.137Z,2.100
2023-01-09T04:03:32.553Z,1.200
2023-01-09T04:04:19.694Z,1.800
2023-01-09T04:05:22.079Z,1.600
2023-01-09T04:06:23.212Z,2.450
2023-01-09T04:07:28.466Z,1.600
2023-01-09T04:08:24.548Z,2.200
2023-01-09T04:09:21.933Z,1.900
2023-01-09T04:10:31.759Z,1.600
2023-01-09T04:11:22.753Z,2.100
2023-01-09T04:12:21.969Z,2.250
2023-01-09T04:13:25.058Z,1.650
2023-01-09T04:14:30.460Z,1.500
2023-01-09T04:15:25.491Z,1.950
2023-01-09T04:16:20.016Z,1.700
2023-01-09T04:17:30.446Z,1.900
2023-01-09T04:18:28.931Z,1.900
2023-01-09T04:19:22.450Z,1.400
2023-01-09T04:20:29.183Z,1.650
2023-01-09T04:21:22.792Z,2.100
2023-01-09T04:22:21.269Z,1.400
2023-01-09T04:23:25.628Z,2.750
2023-01-09T04:24:31.873Z,3.900
2023-01-09T04:25:29.208Z,3.100
2023-01-09T04:26:23.681Z,2.300
2023-01-09T04:27:33.273Z,1.700
2023-01-09T04:28:29.550Z,3.600
2023-01-09T04:29:24.537Z,4.300
2023-01-09T04:30:20.453Z,2.150
2023-01-09T04:31:30.522Z,2.550
2023-01-09T04:32:27.323Z,1.700
2023-01-09T04:33:23.977Z,3.000
2023-01-09T04:34:21.299Z,2.550
2023-01-09T04:35:32.165Z,2.300
2023-01-09T04:36:26.416Z,2.300
2023-01-09T04:37:20.370Z,3.050
2023-01-09T04:38:31.928Z,2.800
2023-01-09T04:39:26.259Z,3.300
2023-01-09T04:40:22.367Z,3.700
2023-01-09T04:41:32.113Z,3.150
2023-01-09T04:42:28.854Z,3.000
2023-01-09T04:43:30.632Z,2.500
2023-01-09T04:44:20.296Z,2.250
2023-01-09T04:45:32.053Z,1.600
2023-01-09T04:46:26.214Z,2.400
2023-01-09T04:47:26.405Z,3.900
2023-01-09T04:48:33.010Z,4.650
2023-01-09T04:49:29.350Z,1.700
2023-01-09T04:50:24.250Z,5.100
2023-01-09T04:51:25.734Z,2.900
2023-01-09T04:52:30.580Z,3.450
2023-01-09T04:53:26.025Z,1.200
2023-01-09T04:54:23.921Z,1.750
2023-01-09T04:55:34.020Z,2.250
2023-01-09T04:56:29.874Z,2.500
2023-01-09T04:57:24.254Z,2.700
2023-01-09T04:58:22.885Z,3.700
2023-01-09T04:59:21.038Z,3.350
2023-01-09T05:00:27.990Z,2.600
2023-01-09T05:01:22.359Z,2.700
2023-01-09T05:02:35.217Z,2.000
2023-01-09T05:03:28.521Z,3.300
2023-01-09T05:04:25.483Z,3.200
2023-01-09T05:05:20.191Z,4.600
2023-01-09T05:06:27.143Z,2.800
2023-01-09T05:07:26.699Z,3.350
2023-01-09T05:08:24.735Z,2.500
2023-01-09T05:09:21.943Z,4.100
2023-01-09T05:10:29.861Z,3.000
2023-01-09T05:11:25.686Z,3.400
2023-01-09T05:12:21.660Z,4.800
2023-01-09T05:13:30.406Z,3.650
2023-01-09T05:14:23.578Z,3.100
2023-01-09T05:15:22.596Z,3.800
2023-01-09T05:16:24.018Z,2.300
2023-01-09T05:17:30.336Z,2.350
2023-01-09T05:18:24.496Z,3.700
2023-01-09T05:19:22.112Z,3.150
2023-01-09T05:20:34.958Z,3.700
2023-01-09T05:21:26.544Z,5.500
2023-01-09T05:22:23.902Z,3.100
2023-01-09T05:23:28.462Z,3.350
2023-01-09T05:24:28.325Z,1.900
2023-01-09T05:25:27.708Z,3.400
2023-01-09T05:26:20.566Z,2.700
2023-01-09T05:27:21.902Z,4.300
2023-01-09T05:28:27.437Z,3.400
2023-01-09T05:29:23.762Z,3.050
2023-01-09T05:30:32.243Z,4.300
2023-01-09T05:31:28.378Z,3.450
2023-01-09T05:32:24.692Z,4.150
2023-01-09T05:33:21.983Z,2.700
2023-01-09T05:34:24.561Z,3.100
2023-01-09T05:35:26.564Z,3.000
2023-01-09T05:36:22.969Z,3.100
2023-01-09T05:37:20.673Z,3.300
2023-01-09T05:38:20.023Z,2.900
2023-01-09T05:39:26.518Z,4.650
2023-01-09T05:40:20.803Z,2.750
2023-01-09T05:41:30.759Z,3.300
2023-01-09T05:42:28.378Z,4.700
2023-01-09T05:43:24.327Z,2.300
2023-01-09T05:44:24.774Z,4.150
2023-01-09T05:45:23.165Z,3.300
2023-01-09T05:46:24.338Z,2.700
2023-01-09T05:47:21.908Z,3.200
2023-01-09T05:48:34.855Z,4.100
2023-01-09T05:49:26.447Z,4.100
2023-01-09T05:50:23.820Z,3.600
2023-01-09T05:51:29.462Z,3.200
2023-01-09T05:52:21.831Z,3.800
2023-01-09T05:53:25.348Z,3.600
2023-01-09T05:54:20.350Z,3.900
2023-01-09T05:55:32.314Z,3.700
2023-01-09T05:56:20.983Z,4.000
2023-01-09T05:57:24.429Z,4.000
2023-01-09T05:58:35.012Z,3.400
2023-01-09T05:59:30.329Z,3.600
2023-01-09T06:00:24.244Z,3.900
2023-01-09T06:01:22.253Z,4.500
2023-01-09T06:02:32.009Z,3.450
2023-01-09T06:03:23.446Z,3.900
2023-01-09T06:04:22.283Z,5.000
2023-01-09T06:05:37.739Z,3.950
2023-01-09T06:06:31.746Z,2.900
2023-01-09T06:07:25.525Z,4.350
2023-01-09T06:08:20.260Z,3.600
2023-01-09T06:09:30.480Z,5.100
2023-01-09T06:10:27.083Z,3.700
2023-01-09T06:11:22.180Z,4.150
2023-01-09T06:12:32.466Z,3.000
2023-01-09T06:13:36.722Z,6.000
2023-01-09T06:14:21.522Z,3.500
2023-01-09T06:15:20.703Z,3.200
2023-01-09T06:16:34.246Z,5.500
2023-01-09T06:17:27.558Z,4.550
2023-01-09T06:18:22.683Z,4.500
2023-01-09T06:19:34.286Z,4.700
2023-01-09T06:20:28.591Z,6.000
2023-01-09T06:21:24.632Z,4.000
2023-01-09T06:22:25.871Z,3.300
2023-01-09T06:23:30.407Z,4.300
2023-01-09T06:24:27.774Z,4.600
2023-01-09T06:25:22.679Z,4.150
2023-01-09T06:26:32.497Z,3.900
2023-01-09T06:27:30.508Z,4.750
2023-01-09T06:28:24.616Z,3.300
2023-01-09T06:29:20.754Z,5.100
2023-01-09T06:30:24.270Z,6.000
2023-01-09T06:31:26.613Z,4.700
2023-01-09T06:32:22.616Z,6.200
2023-01-09T06:33:36.610Z,5.000
2023-01-09T06:34:29.116Z,5.900
2023-01-09T06:35:26.372Z,4.800
2023-01-09T06:36:22.408Z,4.650
2023-01-09T06:37:26.416Z,5.700
2023-01-09T06:38:20.688Z,2.900
2023-01-09T06:39:22.454Z,6.600
2023-01-09T06:40:33.347Z,5.550
2023-01-09T06:41:28.327Z,4.500
2023-01-09T06:42:27.087Z,3.950
2023-01-09T06:43:20.509Z,6.200
2023-01-09T06:44:31.328Z,4.100
2023-01-09T06:45:28.492Z,5.450
2023-01-09T06:46:22.447Z,5.800
2023-01-09T06:47:34.173Z,4.400
2023-01-09T06:48:28.252Z,3.700
2023-01-09T06:49:25.859Z,4.800
2023-01-09T06:50:20.451Z,4.700
2023-01-09T06:51:31.855Z,4.700
2023-01-09T06:52:30.508Z,4.050
2023-01-09T06:53:22.466Z,4.200
2023-01-09T06:54:33.194Z,7.400
2023-01-09T06:55:30.077Z,6.550
2023-01-09T06:56:24.298Z,4.400
2023-01-09T06:57:22.530Z,5.400
2023-01-09T06:58:30.675Z,5.300
2023-01-09T06:59:29.077Z,5.150
2023-01-09T07:00:23.334Z,5.000
2023-01-09T07:01:21.710Z,5.950
2023-01-09T07:02:30.460Z,5.200
2023-01-09T07:03:24.265Z,5.200
2023-01-09T07:04:23.002Z,5.600
2023-01-09T07:05:32.222Z,5.250
2023-01-09T07:06:26.784Z,5.450
2023-01-09T07:07:24.456Z,6.000
2023-01-09T07:08:24.661Z,5.550
2023-01-09T07:09:29.775Z,5.200
2023-01-09T07:10:24.805Z,6.800
2023-01-09T07:11:22.294Z,4.500
2023-01-09T07:12:19.625Z,6.850
2023-01-09T07:13:26.572Z,5.700
2023-01-09T07:14:23.900Z,5.850
2023-01-09T07:15:23.127Z,4.450
2023-01-09T07:16:20.217Z,4.800
2023-01-09T07:17:24.653Z,6.500
2023-01-09T07:18:22.122Z,4.950
2023-01-09T07:19:22.638Z,6.900
2023-01-09T07:20:26.730Z,4.600
2023-01-09T07:21:25.069Z,7.300
2023-01-09T07:22:27.394Z,6.000
2023-01-09T07:23:21.537Z,5.200
2023-01-09T07:24:24.777Z,6.450
2023-01-09T07:25:37.341Z,5.700
2023-01-09T07:26:25.740Z,7.000
2023-01-09T07:27:28.320Z,6.100
2023-01-09T07:28:23.149Z,7.250
2023-01-09T07:29:38.423Z,6.600
2023-01-09T07:30:20.627Z,7.600
2023-01-09T07:31:25.245Z,7.200
2023-01-09T07:32:20.666Z,5.950
2023-01-09T07:33:30.814Z,6.100
2023-01-09T07:34:26.579Z,7.200
2023-01-09T07:35:24.636Z,8.050
2023-01-09T07:36:41.245Z,8.250
2023-01-09T07:37:23.688Z,8.600
2023-01-09T07:38:20.940Z,7.550
2023-01-09T07:39:20.616Z,8.500
2023-01-09T07:40:33.812Z,7.400
2023-01-09T07:41:26.427Z,7.900
2023-01-09T07:42:23.689Z,10.100
2023-01-09T07:43:33.705Z,8.450
2023-01-09T07:44:28.400Z,8.400
2023-01-09T07:45:22.029Z,7.650
2023-01-09T07:46:24.568Z,6.700
2023-01-09T07:47:30.383Z,7.400
2023-01-09T07:48:21.625Z,5.400
2023-01-09T07:49:26.723Z,6.950
2023-01-09T07:50:34.652Z,8.950
2023-01-09T07:51:29.894Z,4.900
2023-01-09T07:52:24.418Z,8.250
2023-01-09T07:53:22.150Z,7.150
2023-01-09T07:54:20.226Z,7.700
2023-01-09T07:55:26.366Z,7.150
2023-01-09T07:56:22.349Z,8.000
2023-01-09T07:57:34.481Z,7.100
2023-01-09T07:58:29.473Z,7.800
2023-01-09T07:59:21.370Z,5.500
2023-01-09T08:00:20.447Z,5.750
2023-01-09T08:01:25.076Z,6.400
2023-01-09T08:02:23.215Z,8.200
2023-01-09T08:03:22.355Z,7.400
2023-01-09T08:04:33.282Z,7.400
2023-01-09T08:05:29.762Z,7.150
2023-01-09T08:06:24.384Z,5.500
2023-01-09T08:07:20.423Z,5.400
2023-01-09T08:08:24.479Z,6.650
2023-01-09T08:09:22.449Z,7.050
2023-01-09T08:10:22.905Z,8.700
2023-01-09T08:11:34.891Z,5.550
2023-01-09T08:12:28.887Z,8.800
2023-01-09T08:13:21.661Z,6.000
2023-01-09T08:14:20.357Z,7.150
2023-01-09T08:15:27.032Z,8.900
2023-01-09T08:16:22.575Z,7.100
2023-01-09T08:17:24.355Z,8.000
2023-01-09T08:18:33.168Z,6.800
2023-01-09T08:19:24.917Z,8.500
2023-01-09T08:20:24.808Z,8.250
2023-01-09T08:21:21.319Z,5.300
2023-01-09T08:22:31.079Z,8.000
2023-01-09T08:23:28.202Z,8.350
2023-01-09T08:24:23.767Z,7.500
2023-01-09T08:25:34.202Z,6.500
2023-01-09T08:26:28.765Z,7.300
2023-01-09T08:27:25.926Z,8.700
2023-01-09T08:28:36.622Z,6.200
2023-01-09T08:29:30.470Z,4.900
2023-01-09T08:30:22.427Z,5.900
2023-01-09T08:31:22.693Z,6.200
2023-01-09T08:32:21.037Z,8.200
2023-01-09T08:33:31.001Z,5.500
2023-01-09T08:34:24.601Z,6.100
2023-01-09T08:35:21.864Z,5.000
2023-01-09T08:36:28.472Z,5.450
2023-01-09T08:37:26.698Z,4.700
2023-01-09T08:38:24.709Z,4.900
2023-01-09T08:39:27.219Z,6.450
2023-01-09T08:40:28.429Z,4.850
2023-01-09T08:41:25.369Z,5.500
2023-01-09T08:42:22.394Z,6.500
2023-01-09T08:43:31.669Z,5.700
2023-01-09T08:44:27.126Z,6.300
2023-01-09T08:45:24.575Z,6.150
2023-01-09T08:46:21.909Z,5.500
2023-01-09T08:47:25.366Z,5.200
2023-01-09T08:48:24.457Z,4.600
2023-01-09T08:49:22.115Z,4.300
2023-01-09T08:50:32.610Z,6.300
2023-01-09T08:51:27.852Z,7.350
2023-01-09T08:52:22.487Z,5.900
2023-01-09T08:53:27.898Z,4.450
2023-01-09T08:54:29.885Z,5.350
2023-01-09T08:55:21.734Z,4.300
2023-01-09T08:56:21.110Z,5.100
2023-01-09T08:57:30.829Z,6.300
2023-01-09T08:58:22.498Z,7.600
2023-01-09T08:59:22.528Z,7.400
2023-01-09T09:00:26.056Z,8.700
2023-01-09T09:01:23.539Z,6.700
2023-01-09T09:02:25.258Z,8.400
2023-01-09T09:03:22.120Z,8.600
2023-01-09T09:04:20.844Z,6.950
2023-01-09T09:05:28.531Z,7.900
2023-01-09T09:06:23.021Z,6.100
2023-01-09T09:07:28.983Z,5.750
2023-01-09T09:08:28.702Z,6.450
2023-01-09T09:09:20.168Z,7.000
2023-01-09T09:10:20.941Z,7.700
2023-01-09T09:11:23.863Z,6.200
2023-01-09T09:12:29.363Z,7.300
2023-01-09T09:13:22.473Z,6.250
2023-01-09T09:14:32.617Z,5.600
2023-01-09T09:15:22.885Z,6.700
2023-01-09T09:16:24.995Z,5.050
2023-01-09T09:17:20.553Z,6.500
2023-01-09T09:18:26.905Z,6.150
2023-01-09T09:19:26.706Z,5.850
2023-01-09T09:20:22.858Z,5.600
2023-01-09T09:21:29.893Z,4.700
2023-01-09T09:22:22.032Z,6.700
2023-01-09T09:23:28.165Z,6.500
2023-01-09T09:24:32.247Z,6.200
2023-01-09T09:25:23.509Z,4.950
2023-01-09T09:26:21.943Z,4.900
2023-01-09T09:27:22.820Z,4.500
2023-01-09T09:28:32.549Z,6.050
2023-01-09T09:29:25.123Z,4.800
2023-01-09T09:30:26.420Z,5.450
2023-01-09T09:31:21.197Z,5.450
2023-01-09T09:32:26.923Z,5.600
2023-01-09T09:33:19.956Z,6.150
2023-01-09T09:34:22.751Z,5.100
2023-01-09T09:35:34.144Z,5.550
2023-01-09T09:36:28.582Z,5.650
2023-01-09T09:37:24.748Z,4.300
2023-01-09T09:38:20.786Z,4.900
2023-01-09T09:39:22.108Z,4.900
2023-01-09T09:40:26.534Z,4.500
2023-01-09T09:41:22.725Z,4.700
2023-01-09T09:42:32.415Z,4.300
2023-01-09T09:43:23.593Z,5.250
2023-01-09T09:44:25.431Z,4.750
2023-01-09T09:45:20.907Z,4.800
2023-01-09T09:46:25.777Z,4.800
2023-01-09T09:47:28.696Z,4.650
2023-01-09T09:48:22.635Z,5.300
2023-01-09T09:49:28.277Z,4.400
2023-01-09T09:50:28.425Z,5.200
2023-01-09T09:51:20.937Z,4.200
2023-01-09T09:52:21.996Z,4.850
2023-01-09T09:53:32.006Z,4.050
2023-01-09T09:54:22.471Z,5.400
2023-01-09T09:55:22.891Z,3.450
2023-01-09T09:56:33.599Z,5.600
2023-01-09T09:57:29.809Z,3.800
2023-01-09T09:58:25.186Z,4.250
2023-01-09T09:59:22.506Z,4.200
2023-01-09T10:00:25.643Z,4.500
2023-01-09T10:01:33.616Z,5.050
2023-01-09T10:02:22.617Z,5.400
2023-01-09T10:03:33.214Z,5.150
2023-01-09T10:04:44.655Z,5.350
2023-01-09T10:05:27.093Z,4.800
2023-01-09T10:06:20.581Z,4.950
2023-01-09T10:07:30.879Z,5.050
2023-01-09T10:08:26.876Z,5.100
2023-01-09T10:09:24.151Z,4.300
2023-01-09T10:10:27.718Z,5.300
2023-01-09T10:11:20.967Z,4.950
2023-01-09T10:12:24.387Z,5.850
2023-01-09T10:13:20.553Z,4.700
2023-01-09T10:14:30.828Z,4.500
2023-01-09T10:15:36.552Z,5.700
2023-01-09T10:16:28.784Z,4.900
2023-01-09T10:17:20.559Z,5.000
2023-01-09T10:18:24.861Z,6.550
2023-01-09T10:19:34.646Z,4.600
2023-01-09T10:20:20.493Z,4.600
2023-01-09T10:21:32.532Z,4.600
2023-01-09T10:22:40.959Z,4.300
2023-01-09T10:23:24.465Z,6.600
2023-01-09T10:24:24.717Z,5.900
2023-01-09T10:25:28.819Z,4.350
2023-01-09T10:26:23.333Z,6.500
2023-01-09T10:27:36.229Z,5.000
2023-01-09T10:28:22.786Z,5.300
2023-01-09T10:29:28.314Z,4.800
2023-01-09T10:30:22.795Z,4.100
2023-01-09T10:31:30.381Z,4.350
2023-01-09T10:32:22.523Z,5.050
2023-01-09T10:33:27.610Z,5.500
2023-01-09T10:34:20.835Z,5.500
2023-01-09T10:35:47.979Z,5.350
2023-01-09T10:36:26.697Z,8.000
2023-01-09T10:37:23.895Z,6.150
2023-01-09T10:38:21.299Z,5.500
2023-01-09T10:39:21.783Z,8.600
2023-01-09T10:40:24.793Z,7.050
2023-01-09T10:41:23.508Z,5.300
2023-01-09T10:42:30.769Z,5.550
2023-01-09T10:43:26.599Z,6.750
2023-01-09T10:44:38.565Z,7.100
2023-01-09T10:45:24.549Z,6.300
2023-01-09T10:46:31.594Z,6.750
2023-01-09T10:47:25.261Z,6.800
2023-01-09T10:48:27.464Z,6.300
2023-01-09T10:49:22.345Z,5.400
2023-01-09T10:50:42.954Z,7.000
2023-01-09T10:51:25.141Z,6.900
2023-01-09T10:52:27.261Z,6.250
2023-01-09T10:53:28.460Z,7.300
2023-01-09T10:54:28.135Z,5.000
2023-01-09T10:55:20.659Z,4.700
2023-01-09T10:56:27.516Z,6.250
2023-01-09T10:57:26.476Z,5.000
2023-01-09T10:58:22.745Z,5.400
2023-01-09T10:59:30.687Z,5.900
2023-01-09T11:00:29.942Z,5.650
2023-01-09T11:01:24.650Z,4.150
2023-01-09T11:02:21.885Z,6.300
2023-01-09T11:03:25.368Z,5.150
2023-01-09T11:04:22.789Z,5.900
2023-01-09T11:05:40.612Z,5.100
2023-01-09T11:06:32.885Z,4.400
2023-01-09T11:07:22.350Z,5.150
2023-01-09T11:08:36.525Z,6.050
2023-01-09T11:09:20.565Z,5.400
2023-01-09T11:10:22.687Z,4.750
2023-01-09T11:11:26.893Z,6.450
2023-01-09T11:12:19.461Z,4.900
2023-01-09T11:13:25.297Z,5.200
2023-01-09T11:14:23.149Z,5.300
2023-01-09T11:15:24.455Z,5.000
2023-01-09T11:16:20.669Z,6.050
2023-01-09T11:17:26.297Z,5.200
2023-01-09T11:18:30.774Z,5.000
2023-01-09T11:19:23.991Z,6.100
2023-01-09T11:20:34.671Z,6.800
2023-01-09T11:21:26.389Z,5.200
2023-01-09T11:22:41.477Z,4.150
2023-01-09T11:23:22.712Z,7.300
2023-01-09T11:24:20.840Z,5.200
2023-01-09T11:25:21.581Z,6.000
2023-01-09T11:26:23.260Z,5.500
2023-01-09T11:27:22.758Z,5.850
2023-01-09T11:28:29.449Z,5.200
2023-01-09T11:29:39.657Z,4.700
2023-01-09T11:30:22.777Z,5.400
2023-01-09T11:31:34.699Z,6.450
2023-01-09T11:32:25.733Z,5.700
2023-01-09T11:33:22.912Z,5.800
2023-01-09T11:34:25.464Z,5.500
2023-01-09T11:35:34.325Z,4.700
2023-01-09T11:36:30.840Z,5.650
2023-01-09T11:37:21.573Z,5.300
2023-01-09T11:38:31.333Z,5.800
2023-01-09T11:39:31.313Z,5.200
2023-01-09T11:40:22.920Z,6.400
2023-01-09T11:41:23.267Z,5.300
2023-01-09T11:42:22.881Z,5.900
2023-01-09T11:43:22.194Z,6.600
2023-01-09T11:44:49.094Z,4.900
2023-01-09T11:45:33.367Z,4.200
2023-01-09T11:46:29.879Z,5.600
2023-01-09T11:47:28.972Z,5.800
2023-01-09T11:48:19.893Z,6.000
2023-01-09T11:49:27.096Z,4.800
2023-01-09T11:50:20.865Z,6.750
2023-01-09T11:51:21.495Z,6.050
2023-01-09T11:52:19.571Z,7.000
2023-01-09T11:53:35.536Z,4.350
2023-01-09T11:54:21.778Z,5.000
2023-01-09T11:55:29.292Z,6.400
2023-01-09T11:56:31.188Z,5.100
2023-01-09T11:57:24.238Z,5.200
2023-01-09T11:58:21.314Z,5.250
2023-01-09T11:59:42.380Z,5.700
2023-01-09T12:00:37.577Z,4.300
2023-01-09T12:01:22.918Z,4.800
2023-01-09T12:02:29.505Z,4.850
2023-01-09T12:03:22.423Z,4.100
2023-01-09T12:04:24.537Z,4.500
2023-01-09T12:05:22.340Z,4.600
2023-01-09T12:06:30.695Z,5.150
2023-01-09T12:07:26.602Z,4.000
2023-01-09T12:08:22.648Z,3.900
2023-01-09T12:09:21.832Z,3.700
2023-01-09T12:10:26.900Z,5.200
2023-01-09T12:11:24.860Z,3.250
2023-01-09T12:12:21.243Z,3.600
2023-01-09T12:13:30.989Z,3.800
2023-01-09T12:14:27.062Z,4.200
2023-01-09T12:15:24.102Z,3.900
2023-01-09T12:16:38.005Z,4.850
2023-01-09T12:17:28.450Z,3.900
2023-01-09T12:18:25.961Z,4.550
2023-01-09T12:19:23.699Z,3.400
2023-01-09T12:20:24.157Z,5.200
2023-01-09T12:21:33.095Z,4.550
2023-01-09T12:22:22.540Z,3.400
2023-01-09T12:23:39.719Z,4.150
2023-01-09T12:24:33.677Z,3.650
2023-01-09T12:25:27.718Z,3.200
2023-01-09T12:26:21.655Z,4.300
2023-01-09T12:27:27.175Z,2.400
2023-01-09T12:28:20.096Z,3.350
2023-01-09T12:29:23.643Z,2.300
2023-01-09T12:30:24.328Z,2.800
2023-01-09T12:31:29.729Z,3.500
2023-01-09T12:32:24.884Z,3.000
2023-01-09T12:33:24.287Z,2.500
2023-01-09T12:34:31.334Z,3.200
2023-01-09T12:35:28.212Z,2.900
2023-01-09T12:36:22.930Z,3.000
2023-01-09T12:37:20.614Z,3.300
2023-01-09T12:38:30.088Z,2.750
2023-01-09T12:39:24.952Z,3.150
2023-01-09T12:40:21.028Z,2.000
2023-01-09T12:41:21.932Z,2.800
2023-01-09T12:42:30.090Z,2.450
2023-01-09T12:43:26.156Z,3.000
2023-01-09T12:44:35.681Z,3.250
2023-01-09T12:45:28.917Z,2.000
2023-01-09T12:46:26.616Z,2.150
2023-01-09T12:47:21.048Z,2.600
2023-01-09T12:48:24.597Z,2.600
2023-01-09T12:49:26.747Z,2.000
2023-01-09T12:50:23.602Z,1.800
2023-01-09T12:51:32.739Z,2.300
2023-01-09T12:52:31.032Z,2.300
2023-01-09T12:53:24.795Z,3.400
2023-01-09T12:54:22.949Z,2.400
2023-01-09T12:55:30.698Z,2.050
2023-01-09T12:56:20.864Z,1.800
2023-01-09T12:57:24.203Z,2.150
2023-01-09T12:58:23.589Z,2.350
2023-01-09T12:59:24.062Z,3.500
2023-01-09T13:00:26.796Z,2.750